createdAt,value
2023-01-23T00:00:43.939Z,-6.28
2023-01-23T00:01:43.935Z,-6.11
2023-01-23T00:02:44.073Z,-6.28
2023-01-23T00:03:43.966Z,-6.61
2023-01-23T00:04:43.948Z,-6.44
2023-01-23T00:05:43.945Z,-6.89
2023-01-23T00:06:43.938Z,-6.89
2023-01-23T00:07:43.948Z,-6.89
2023-01-23T00:08:43.952Z,-6.89
2023-01-23T00:09:43.948Z,-7.06
2023-01-23T00:10:43.943Z,-7.33
2023-01-23T00:11:44.063Z,-7.17
2023-01-23T00:12:43.950Z,-7.06
2023-01-23T00:13:43.955Z,-6.89
2023-01-23T00:14:43.958Z,-6.89
2023-01-23T00:15:43.970Z,-6.89
2023-01-23T00:16:43.953Z,-6.89
2023-01-23T00:17:43.954Z,-6.89
2023-01-23T00:18:43.955Z,-6.61
2023-01-23T00:19:43.951Z,-6.89
2023-01-23T00:20:43.957Z,-6.89
2023-01-23T00:21:43.961Z,-6.61
2023-01-23T00:22:43.953Z,-7.06
2023-01-23T00:23:44.002Z,-7.06
2023-01-23T00:24:43.957Z,-7.06
2023-01-23T00:25:43.967Z,-7.06
2023-01-23T00:26:43.965Z,-7.06
2023-01-23T00:27:44.079Z,-7.17
2023-01-23T00:28:43.965Z,-7.06
2023-01-23T00:29:43.969Z,-7.17
2023-01-23T00:30:44.008Z,-7.44
2023-01-23T00:31:44.103Z,-7.33
2023-01-23T00:32:43.971Z,-7.17
2023-01-23T00:33:43.994Z,-6.72
2023-01-23T00:34:43.987Z,-6.89
2023-01-23T00:35:43.982Z,-6.72
2023-01-23T00:36:43.984Z,-6.44
2023-01-23T00:37:44.007Z,-6.89
2023-01-23T00:38:43.977Z,-6.61
2023-01-23T00:39:43.986Z,-6.61
2023-01-23T00:40:43.978Z,-6.89
2023-01-23T00:41:43.988Z,-6.72
2023-01-23T00:42:43.989Z,-6.61
2023-01-23T00:43:44.098Z,-6.72
2023-01-23T00:44:43.989Z,-6.72
2023-01-23T00:45:43.998Z,-6.89
2023-01-23T00:46:44.078Z,-7.06
2023-01-23T00:47:43.985Z,-6.61
2023-01-23T00:48:44.003Z,-6.61
2023-01-23T00:49:44.000Z,-6.61
2023-01-23T00:50:43.989Z,-6.44
2023-01-23T00:51:43.981Z,-6.61
2023-01-23T00:52:43.999Z,-6.72
2023-01-23T00:53:43.993Z,-7.06
2023-01-23T00:54:44.009Z,-6.72
2023-01-23T00:55:44.013Z,-6.89
2023-01-23T00:56:44.004Z,-6.72
2023-01-23T00:57:43.996Z,-7.33
2023-01-23T00:58:45.112Z,-7.17
2023-01-23T00:59:44.134Z,-7.06
2023-01-23T01:00:44.009Z,-7.17
2023-01-23T01:01:44.031Z,-7.17
2023-01-23T01:02:44.061Z,-7.17
2023-01-23T01:03:44.002Z,-7.67
2023-01-23T01:04:44.007Z,-7.44
2023-01-23T01:05:44.020Z,-7.17
2023-01-23T01:06:44.002Z,-7.67
2023-01-23T01:07:44.012Z,-7.33
2023-01-23T01:08:44.011Z,-7.17
2023-01-23T01:09:44.023Z,-7.06
2023-01-23T01:10:44.010Z,-7.17
2023-01-23T01:11:44.013Z,-7.06
2023-01-23T01:12:44.014Z,-7.33
2023-01-23T01:13:44.022Z,-7.17
2023-01-23T01:14:44.010Z,-7.17
2023-01-23T01:15:44.185Z,-7.17
2023-01-23T01:16:44.028Z,-7.06
2023-01-23T01:17:44.031Z,-7.17
2023-01-23T01:18:44.024Z,-7.17
2023-01-23T01:19:44.011Z,-6.89
2023-01-23T01:20:44.022Z,-7.17
2023-01-23T01:21:44.024Z,-7.17
2023-01-23T01:22:44.011Z,-7.17
2023-01-23T01:23:44.025Z,-7.17
2023-01-23T01:24:44.016Z,-7.33
2023-01-23T01:25:44.024Z,-7.33
2023-01-23T01:26:44.034Z,-7.44
2023-01-23T01:27:44.023Z,-7.67
2023-01-23T01:28:44.006Z,-7.83
2023-01-23T01:29:44.017Z,-8.44
2023-01-23T01:30:44.070Z,-8.44
2023-01-23T01:31:44.199Z,-8.78
2023-01-23T01:32:44.015Z,-8.44
2023-01-23T01:33:44.034Z,-9.06
2023-01-23T01:34:44.023Z,-8.44
2023-01-23T01:35:44.026Z,-8.11
2023-01-23T01:36:44.029Z,-7.94
2023-01-23T01:37:44.035Z,-7.83
2023-01-23T01:38:44.028Z,-7.67
2023-01-23T01:39:44.029Z,-7.67
2023-01-23T01:40:44.022Z,-7.67
2023-01-23T01:41:44.030Z,-7.83
2023-01-23T01:42:44.029Z,-7.33
2023-01-23T01:43:44.035Z,-7.44
2023-01-23T01:44:44.044Z,-7.67
2023-01-23T01:45:44.042Z,-7.44
2023-01-23T01:46:44.087Z,-7.44
2023-01-23T01:47:44.141Z,-7.44
2023-01-23T01:48:44.039Z,-7.44
2023-01-23T01:49:44.029Z,-7.83
2023-01-23T01:50:44.028Z,-7.44
2023-01-23T01:51:44.066Z,-7.33
2023-01-23T01:52:44.037Z,-7.44
2023-01-23T01:53:44.040Z,-7.83
2023-01-23T01:54:44.037Z,-7.83
2023-01-23T01:55:44.039Z,-7.44
2023-01-23T01:56:44.036Z,-7.44
2023-01-23T01:57:44.041Z,-7.44
2023-01-23T01:58:44.036Z,-7.83
2023-01-23T01:59:44.034Z,-7.83
2023-01-23T02:00:44.118Z,-7.44
2023-01-23T02:01:44.066Z,-7.67
2023-01-23T02:02:44.031Z,-7.44
2023-01-23T02:03:44.147Z,-7.44
2023-01-23T02:04:44.045Z,-7.44
2023-01-23T02:05:44.042Z,-7.44
2023-01-23T02:06:44.045Z,-7.33
2023-01-23T02:07:44.034Z,-7.33
2023-01-23T02:08:44.041Z,-7.83
2023-01-23T02:09:44.065Z,-7.44
2023-01-23T02:10:44.035Z,-7.83
2023-01-23T02:11:44.043Z,-8.11
2023-01-23T02:12:44.050Z,-7.94
2023-01-23T02:13:44.060Z,-7.94
2023-01-23T02:14:44.060Z,-8.11
2023-01-23T02:15:44.038Z,-8.44
2023-01-23T02:16:44.095Z,-8.44
2023-01-23T02:17:44.063Z,-8.44
2023-01-23T02:18:44.047Z,-8.44
2023-01-23T02:19:44.162Z,-8.61
2023-01-23T02:20:44.048Z,-8.61
2023-01-23T02:21:44.047Z,-8.11
2023-01-23T02:22:44.056Z,-7.94
2023-01-23T02:23:44.053Z,-8.11
2023-01-23T02:24:44.082Z,-7.83
2023-01-23T02:25:44.071Z,-7.83
2023-01-23T02:26:44.082Z,-8.11
2023-01-23T02:27:44.054Z,-7.94
2023-01-23T02:28:44.068Z,-7.83
2023-01-23T02:29:44.084Z,-8.44
2023-01-23T02:30:44.108Z,-7.83
2023-01-23T02:31:44.149Z,-7.94
2023-01-23T02:32:44.081Z,-7.83
2023-01-23T02:33:44.076Z,-8.28
2023-01-23T02:34:44.075Z,-8.28
2023-01-23T02:35:44.198Z,-7.67
2023-01-23T02:36:44.081Z,-7.94
2023-01-23T02:37:44.079Z,-7.83
2023-01-23T02:38:44.087Z,-7.83
2023-01-23T02:39:44.084Z,-7.67
2023-01-23T02:40:44.078Z,-7.94
2023-01-23T02:41:44.099Z,-7.94
2023-01-23T02:42:44.086Z,-7.44
2023-01-23T02:43:44.095Z,-7.17
2023-01-23T02:44:44.095Z,-7.33
2023-01-23T02:45:44.147Z,-7.94
2023-01-23T02:46:44.119Z,-7.67
2023-01-23T02:47:44.106Z,-7.44
2023-01-23T02:48:44.090Z,-7.67
2023-01-23T02:49:44.107Z,-7.94
2023-01-23T02:50:44.101Z,-7.94
2023-01-23T02:51:44.251Z,-7.83
2023-01-23T02:52:44.098Z,-7.94
2023-01-23T02:53:44.108Z,-7.94
2023-01-23T02:54:44.117Z,-7.83
2023-01-23T02:55:44.119Z,-7.83
2023-01-23T02:56:44.106Z,-7.83
2023-01-23T02:57:44.108Z,-8.11
2023-01-23T02:58:44.128Z,-8.28
2023-01-23T02:59:44.106Z,-8.28
2023-01-23T03:00:44.146Z,-8.44
2023-01-23T03:01:44.177Z,-7.94
2023-01-23T03:02:44.119Z,-7.94
2023-01-23T03:03:44.108Z,-7.94
2023-01-23T03:04:44.111Z,-7.94
2023-01-23T03:05:44.119Z,-7.94
2023-01-23T03:06:44.124Z,-7.83
2023-01-23T03:07:44.237Z,-8.11
2023-01-23T03:08:44.116Z,-7.83
2023-01-23T03:09:44.115Z,-7.67
2023-01-23T03:10:44.153Z,-7.67
2023-01-23T03:11:44.126Z,-7.83
2023-01-23T03:12:44.123Z,-7.67
2023-01-23T03:13:44.122Z,-7.44
2023-01-23T03:14:44.134Z,-7.67
2023-01-23T03:15:44.129Z,-7.94
2023-01-23T03:16:44.194Z,-7.83
2023-01-23T03:17:44.120Z,-7.94
2023-01-23T03:18:53.767Z,-7.94
2023-01-23T03:19:44.137Z,-7.94
2023-01-23T03:20:44.127Z,-7.94
2023-01-23T03:21:44.154Z,-7.94
2023-01-23T03:22:44.129Z,-7.94
2023-01-23T03:23:44.260Z,-8.44
2023-01-23T03:24:44.143Z,-7.94
2023-01-23T03:25:44.136Z,-8.28
2023-01-23T03:26:44.169Z,-8.28
2023-01-23T03:27:44.142Z,-8.11
2023-01-23T03:28:44.154Z,-7.94
2023-01-23T03:29:44.200Z,-7.83
2023-01-23T03:30:44.149Z,-7.67
2023-01-23T03:31:44.203Z,-7.44
2023-01-23T03:32:44.160Z,-7.44
2023-01-23T03:33:44.153Z,-7.44
2023-01-23T03:34:44.162Z,-7.67
2023-01-23T03:35:44.149Z,-7.44
2023-01-23T03:36:44.153Z,-7.06
2023-01-23T03:37:44.162Z,-7.33
2023-01-23T03:38:44.157Z,-7.44
2023-01-23T03:39:44.275Z,-7.33
2023-01-23T03:40:44.145Z,-7.33
2023-01-23T03:41:44.172Z,-7.44
2023-01-23T03:42:44.166Z,-7.44
2023-01-23T03:43:44.179Z,-7.44
2023-01-23T03:44:44.169Z,-7.33
2023-01-23T03:45:44.217Z,-7.33
2023-01-23T03:46:44.182Z,-7.44
2023-01-23T03:47:44.171Z,-7.33
2023-01-23T03:48:44.175Z,-7.17
2023-01-23T03:49:44.192Z,-7.17
2023-01-23T03:50:44.175Z,-7.33
2023-01-23T03:51:44.168Z,-7.06
2023-01-23T03:52:44.179Z,-7.06
2023-01-23T03:53:44.184Z,-7.17
2023-01-23T03:54:44.180Z,-7.06
2023-01-23T03:55:44.297Z,-7.17
2023-01-23T03:56:44.191Z,-7.06
2023-01-23T03:57:44.182Z,-7.17
2023-01-23T03:58:44.183Z,-7.33
2023-01-23T03:59:44.183Z,-7.33
2023-01-23T04:00:44.191Z,-7.17
2023-01-23T04:01:44.189Z,-7.17
2023-01-23T04:02:44.224Z,-7.06
2023-01-23T04:03:44.222Z,-7.44
2023-01-23T04:04:44.202Z,-7.44
2023-01-23T04:05:44.217Z,-7.33
2023-01-23T04:06:44.200Z,-7.06
2023-01-23T04:07:44.211Z,-7.06
2023-01-23T04:08:44.200Z,-7.17
2023-01-23T04:09:44.212Z,-7.33
2023-01-23T04:10:44.212Z,-7.94
2023-01-23T04:11:44.337Z,-7.94
2023-01-23T04:12:44.207Z,-7.94
2023-01-23T04:13:44.223Z,-8.28
2023-01-23T04:14:44.225Z,-8.11
2023-01-23T04:15:44.216Z,-8.11
2023-01-23T04:16:44.296Z,-7.94
2023-01-23T04:17:44.218Z,-8.11
2023-01-23T04:18:44.222Z,-8.11
2023-01-23T04:19:44.241Z,-7.94
2023-01-23T04:20:44.208Z,-7.83
2023-01-23T04:21:44.217Z,-7.94
2023-01-23T04:22:44.226Z,-7.67
2023-01-23T04:23:44.237Z,-7.44
2023-01-23T04:24:44.251Z,-8.28
2023-01-23T04:25:44.235Z,-8.11
2023-01-23T04:26:44.224Z,-8.11
2023-01-23T04:27:44.367Z,-7.67
2023-01-23T04:28:44.265Z,-7.44
2023-01-23T04:29:44.238Z,-7.44
2023-01-23T04:30:44.324Z,-7.94
2023-01-23T04:31:44.383Z,-7.44
2023-01-23T04:32:44.252Z,-7.44
2023-01-23T04:33:44.243Z,-7.67
2023-01-23T04:34:44.246Z,-7.67
2023-01-23T04:35:44.251Z,-8.28
2023-01-23T04:36:44.258Z,-8.28
2023-01-23T04:37:44.260Z,-7.67
2023-01-23T04:38:44.281Z,-8.11
2023-01-23T04:39:44.270Z,-8.11
2023-01-23T04:40:44.257Z,-8.11
2023-01-23T04:41:44.276Z,-7.94
2023-01-23T04:42:44.267Z,-7.83
2023-01-23T04:43:44.382Z,-7.44
2023-01-23T04:44:44.268Z,-8.11
2023-01-23T04:45:44.325Z,-7.67
2023-01-23T04:46:44.275Z,-7.67
2023-01-23T04:47:44.262Z,-7.17
2023-01-23T04:48:44.276Z,-7.44
2023-01-23T04:49:44.279Z,-7.17
2023-01-23T04:50:44.277Z,-6.89
2023-01-23T04:51:44.276Z,-7.06
2023-01-23T04:52:44.280Z,-7.06
2023-01-23T04:53:44.279Z,-7.33
2023-01-23T04:54:44.276Z,-7.06
2023-01-23T04:55:44.288Z,-7.06
2023-01-23T04:56:44.283Z,-7.17
2023-01-23T04:57:44.298Z,-7.17
2023-01-23T04:58:44.282Z,-7.83
2023-01-23T04:59:44.415Z,-7.67
2023-01-23T05:00:44.306Z,-7.67
2023-01-23T05:01:44.297Z,-7.94
2023-01-23T05:02:44.303Z,-7.83
2023-01-23T05:03:44.287Z,-7.44
2023-01-23T05:04:44.288Z,-7.44
2023-01-23T05:05:44.349Z,-7.83
2023-01-23T05:06:44.299Z,-7.83
2023-01-23T05:07:44.293Z,-7.83
2023-01-23T05:08:44.289Z,-7.94
2023-01-23T05:09:44.297Z,-7.67
2023-01-23T05:10:44.296Z,-7.67
2023-01-23T05:11:44.311Z,-7.44
2023-01-23T05:12:44.306Z,-7.83
2023-01-23T05:13:44.307Z,-8.11
2023-01-23T05:14:44.307Z,-7.44
2023-01-23T05:15:44.338Z,-7.44
2023-01-23T05:16:44.307Z,-7.44
2023-01-23T05:17:44.314Z,-7.67
2023-01-23T05:18:44.305Z,-8.11
2023-01-23T05:19:44.317Z,-7.67
2023-01-23T05:20:44.322Z,-7.44
2023-01-23T05:21:44.313Z,-7.67
2023-01-23T05:22:44.316Z,-7.17
2023-01-23T05:23:44.311Z,-7.06
2023-01-23T05:24:44.317Z,-6.89
2023-01-23T05:25:44.320Z,-6.89
2023-01-23T05:26:44.329Z,-6.72
2023-01-23T05:27:44.328Z,-6.89
2023-01-23T05:28:44.329Z,-7.33
2023-01-23T05:29:44.339Z,-6.89
2023-01-23T05:30:44.389Z,-7.06
2023-01-23T05:31:44.499Z,-7.17
2023-01-23T05:32:44.342Z,-7.33
2023-01-23T05:33:44.323Z,-7.06
2023-01-23T05:34:44.332Z,-7.17
2023-01-23T05:35:44.333Z,-7.17
2023-01-23T05:36:44.341Z,-6.89
2023-01-23T05:37:44.337Z,-7.17
2023-01-23T05:38:44.344Z,-6.89
2023-01-23T05:39:44.352Z,-6.89
2023-01-23T05:40:44.337Z,-7.06
2023-01-23T05:41:44.340Z,-7.17
2023-01-23T05:42:44.345Z,-6.89
2023-01-23T05:43:44.349Z,-7.06
2023-01-23T05:44:44.350Z,-7.17
2023-01-23T05:45:44.361Z,-7.06
2023-01-23T05:46:44.351Z,-6.89
2023-01-23T05:47:44.469Z,-6.72
2023-01-23T05:48:44.364Z,-6.72
2023-01-23T05:49:44.361Z,-7.06
2023-01-23T05:50:44.348Z,-7.17
2023-01-23T05:51:44.364Z,-7.17
2023-01-23T05:52:44.383Z,-7.17
2023-01-23T05:53:44.366Z,-7.06
2023-01-23T05:54:44.358Z,-7.17
2023-01-23T05:55:44.362Z,-7.06
2023-01-23T05:56:44.379Z,-7.06
2023-01-23T05:57:44.355Z,-7.17
2023-01-23T05:58:44.367Z,-7.06
2023-01-23T05:59:44.368Z,-7.06
2023-01-23T06:00:44.370Z,-7.33
2023-01-23T06:01:44.375Z,-7.33
2023-01-23T06:02:44.440Z,-7.06
2023-01-23T06:03:44.558Z,-6.89
2023-01-23T06:04:44.380Z,-7.06
2023-01-23T06:05:44.377Z,-7.17
2023-01-23T06:06:44.374Z,-7.17
2023-01-23T06:07:44.385Z,-7.17
2023-01-23T06:08:44.370Z,-7.06
2023-01-23T06:09:44.382Z,-7.33
2023-01-23T06:10:44.378Z,-7.06
2023-01-23T06:11:44.378Z,-7.17
2023-01-23T06:12:44.384Z,-7.17
2023-01-23T06:13:44.377Z,-7.06
2023-01-23T06:14:44.399Z,-7.06
2023-01-23T06:15:44.441Z,-7.33
2023-01-23T06:16:44.396Z,-7.17
2023-01-23T06:17:44.487Z,-7.17
2023-01-23T06:18:44.399Z,-7.17
2023-01-23T06:19:44.510Z,-7.06
2023-01-23T06:20:44.404Z,-7.06
2023-01-23T06:21:44.398Z,-7.06
2023-01-23T06:22:44.413Z,-7.06
2023-01-23T06:23:44.400Z,-7.33
2023-01-23T06:24:44.401Z,-7.17
2023-01-23T06:25:44.395Z,-7.17
2023-01-23T06:26:44.401Z,-7.06
2023-01-23T06:27:44.412Z,-7.17
2023-01-23T06:28:44.418Z,-6.89
2023-01-23T06:29:44.431Z,-6.89
2023-01-23T06:30:44.450Z,-7.06
2023-01-23T06:31:44.515Z,-7.06
2023-01-23T06:32:44.414Z,-6.89
2023-01-23T06:33:44.403Z,-7.06
2023-01-23T06:34:44.403Z,-7.06
2023-01-23T06:35:44.524Z,-7.17
2023-01-23T06:36:44.407Z,-7.33
2023-01-23T06:37:44.403Z,-7.33
2023-01-23T06:38:44.408Z,-7.33
2023-01-23T06:39:44.403Z,-7.17
2023-01-23T06:40:44.402Z,-7.06
2023-01-23T06:41:44.429Z,-7.17
2023-01-23T06:42:44.416Z,-7.17
2023-01-23T06:43:44.413Z,-7.17
2023-01-23T06:44:44.407Z,-7.17
2023-01-23T06:45:44.429Z,-7.33
2023-01-23T06:46:44.462Z,-7.06
2023-01-23T06:47:44.419Z,-7.06
2023-01-23T06:48:44.424Z,-7.06
2023-01-23T06:49:44.430Z,-7.33
2023-01-23T06:50:44.417Z,-7.33
2023-01-23T06:51:44.531Z,-7.06
2023-01-23T06:52:44.416Z,-7.17
2023-01-23T06:53:44.422Z,-7.06
2023-01-23T06:54:44.433Z,-7.33
2023-01-23T06:55:44.428Z,-7.33
2023-01-23T06:56:44.419Z,-7.67
2023-01-23T06:57:44.432Z,-7.06
2023-01-23T06:58:44.441Z,-7.06
2023-01-23T06:59:44.425Z,-7.17
2023-01-23T07:00:44.447Z,-7.33
2023-01-23T07:01:44.487Z,-7.06
2023-01-23T07:02:45.682Z,-7.06
2023-01-23T07:03:44.423Z,-7.06
2023-01-23T07:04:44.436Z,-7.44
2023-01-23T07:05:44.425Z,-7.17
2023-01-23T07:06:44.444Z,-7.06
2023-01-23T07:07:44.552Z,-7.06
2023-01-23T07:08:44.459Z,-7.06
2023-01-23T07:09:44.442Z,-7.17
2023-01-23T07:10:44.425Z,-7.06
2023-01-23T07:11:44.444Z,-6.72
2023-01-23T07:12:44.438Z,-6.72
2023-01-23T07:13:44.447Z,-7.17
2023-01-23T07:14:44.443Z,-7.06
2023-01-23T07:15:44.433Z,-7.17
2023-01-23T07:16:44.457Z,-7.06
2023-01-23T07:17:44.433Z,-7.17
2023-01-23T07:18:44.444Z,-7.17
2023-01-23T07:19:44.450Z,-7.17
2023-01-23T07:20:44.448Z,-7.17
2023-01-23T07:21:44.449Z,-6.89
2023-01-23T07:22:44.439Z,-7.06
2023-01-23T07:23:44.561Z,-6.72
2023-01-23T07:24:44.449Z,-6.89
2023-01-23T07:25:44.447Z,-6.89
2023-01-23T07:26:44.451Z,-6.61
2023-01-23T07:27:44.439Z,-6.61
2023-01-23T07:28:44.446Z,-6.61
2023-01-23T07:29:44.440Z,-6.61
2023-01-23T07:30:44.508Z,-6.61
2023-01-23T07:31:44.544Z,-6.61
2023-01-23T07:32:44.458Z,-6.72
2023-01-23T07:33:44.452Z,-6.44
2023-01-23T07:34:44.450Z,-6.89
2023-01-23T07:35:44.440Z,-6.28
2023-01-23T07:36:44.454Z,-6.44
2023-01-23T07:37:44.465Z,-6.11
2023-01-23T07:38:44.449Z,-6.28
2023-01-23T07:39:44.550Z,-6.61
2023-01-23T07:40:44.435Z,-6.11
2023-01-23T07:41:46.329Z,-6.28
2023-01-23T07:42:44.455Z,-6.72
2023-01-23T07:43:44.449Z,-6.72
2023-01-23T07:44:44.441Z,-6.44
2023-01-23T07:45:44.442Z,-6.28
2023-01-23T07:46:44.490Z,-6.11
2023-01-23T07:47:45.655Z,-6.11
2023-01-23T07:48:44.449Z,-6.11
2023-01-23T07:49:44.440Z,-6.11
2023-01-23T07:50:44.445Z,-6.11
2023-01-23T07:51:44.462Z,-6.11
2023-01-23T07:52:44.462Z,-6.44
2023-01-23T07:53:44.472Z,-6.44
2023-01-23T07:54:44.458Z,-6.11
2023-01-23T07:55:44.602Z,-7.17
2023-01-23T07:56:44.463Z,-6.44
2023-01-23T07:57:44.470Z,-6.72
2023-01-23T07:58:44.452Z,-6.61
2023-01-23T07:59:44.462Z,-6.11
2023-01-23T08:00:44.489Z,-6.11
2023-01-23T08:01:44.475Z,-6.44
2023-01-23T08:02:44.483Z,-5.72
2023-01-23T08:03:44.473Z,-5.72
2023-01-23T08:04:44.475Z,-5.83
2023-01-23T08:05:44.472Z,-5.39
2023-01-23T08:06:44.474Z,-5.56
2023-01-23T08:07:44.520Z,-5.22
2023-01-23T08:08:44.463Z,-5.06
2023-01-23T08:09:44.474Z,-5.22
2023-01-23T08:10:44.463Z,-5.22
2023-01-23T08:11:44.606Z,-5.39
2023-01-23T08:12:44.489Z,-5.39
2023-01-23T08:13:44.480Z,-5.39
2023-01-23T08:14:44.473Z,-5.56
2023-01-23T08:15:44.487Z,-5.22
2023-01-23T08:16:44.578Z,-5.39
2023-01-23T08:17:44.488Z,-5.56
2023-01-23T08:18:44.486Z,-5.22
2023-01-23T08:19:44.499Z,-5.22
2023-01-23T08:20:44.492Z,-5.39
2023-01-23T08:21:44.485Z,-5.39
2023-01-23T08:22:44.506Z,-5.22
2023-01-23T08:23:44.500Z,-5.39
2023-01-23T08:24:44.518Z,-5.39
2023-01-23T08:25:44.497Z,-6
2023-01-23T08:26:44.500Z,-5.83
2023-01-23T08:27:44.630Z,-5.56
2023-01-23T08:28:44.508Z,-5.39
2023-01-23T08:29:44.506Z,-5.39
2023-01-23T08:30:44.550Z,-5.06
2023-01-23T08:31:44.555Z,-5.06
2023-01-23T08:32:44.513Z,-5.22
2023-01-23T08:33:44.511Z,-5.56
2023-01-23T08:34:44.501Z,-5.22
2023-01-23T08:35:44.505Z,-5.39
2023-01-23T08:36:44.513Z,-5.22
2023-01-23T08:37:44.548Z,-5.22
2023-01-23T08:38:44.527Z,-5.39
2023-01-23T08:39:44.511Z,-5.39
2023-01-23T08:40:44.516Z,-4.94
2023-01-23T08:41:44.552Z,-4.94
2023-01-23T08:42:44.511Z,-4.78
2023-01-23T08:43:44.649Z,-4.94
2023-01-23T08:44:44.526Z,-5.22
2023-01-23T08:45:44.551Z,-4.94
2023-01-23T08:46:44.527Z,-5.22
2023-01-23T08:47:44.529Z,-4.61
2023-01-23T08:48:44.521Z,-4.78
2023-01-23T08:49:44.536Z,-4.78
2023-01-23T08:50:44.549Z,-4.61
2023-01-23T08:51:44.536Z,-4.61
2023-01-23T08:52:44.537Z,-4.61
2023-01-23T08:53:44.539Z,-4.78
2023-01-23T08:54:44.538Z,-4.94
2023-01-23T08:55:44.550Z,-5.39
2023-01-23T08:56:44.530Z,-5.22
2023-01-23T08:57:44.557Z,-4.78
2023-01-23T08:58:44.548Z,-4.61
2023-01-23T08:59:44.684Z,-4.78
2023-01-23T09:00:44.612Z,-4.94
2023-01-23T09:01:44.569Z,-4.61
2023-01-23T09:02:44.547Z,-4.5
2023-01-23T09:03:44.549Z,-4.5
2023-01-23T09:04:44.559Z,-4.61
2023-01-23T09:05:44.557Z,-5.06
2023-01-23T09:06:44.569Z,-4.94
2023-01-23T09:07:44.582Z,-4.5
2023-01-23T09:08:44.561Z,-4.22
2023-01-23T09:09:44.567Z,-4.33
2023-01-23T09:10:44.574Z,-4.78
2023-01-23T09:11:44.574Z,-4.94
2023-01-23T09:12:44.584Z,-5.06
2023-01-23T09:13:44.556Z,-5.06
2023-01-23T09:14:44.561Z,-4.94
2023-01-23T09:15:44.687Z,-4.78
2023-01-23T09:16:44.642Z,-4.78
2023-01-23T09:17:44.566Z,-4.5
2023-01-23T09:18:44.571Z,-4.61
2023-01-23T09:19:44.575Z,-4.33
2023-01-23T09:20:44.588Z,-4.06
2023-01-23T09:21:44.590Z,-4.22
2023-01-23T09:22:44.582Z,-4.61
2023-01-23T09:23:44.579Z,-3.61
2023-01-23T09:24:44.571Z,-3.44
2023-01-23T09:25:44.577Z,-2.89
2023-01-23T09:26:44.577Z,-2.61
2023-01-23T09:27:44.571Z,-3.17
2023-01-23T09:28:44.583Z,-3.44
2023-01-23T09:29:44.581Z,-3.44
2023-01-23T09:30:44.600Z,-3.28
2023-01-23T09:31:44.728Z,-3.17
2023-01-23T09:32:44.590Z,-3.06
2023-01-23T09:33:44.585Z,-3.61
2023-01-23T09:34:44.585Z,-3.89
2023-01-23T09:35:44.590Z,-3.89
2023-01-23T09:36:44.614Z,-4.5
2023-01-23T09:37:44.598Z,-3.89
2023-01-23T09:38:44.614Z,-3.61
2023-01-23T09:39:44.598Z,-4.22
2023-01-23T09:40:44.593Z,-4.22
2023-01-23T09:41:44.619Z,-4.5
2023-01-23T09:42:44.601Z,-4.78
2023-01-23T09:43:44.603Z,-4.61
2023-01-23T09:44:44.612Z,-4.5
2023-01-23T09:45:44.608Z,-4.94
2023-01-23T09:46:44.608Z,-4.5
2023-01-23T09:47:44.728Z,-4.33
2023-01-23T09:48:44.628Z,-4.61
2023-01-23T09:49:44.610Z,-3.61
2023-01-23T09:50:44.618Z,-3.28
2023-01-23T09:51:44.632Z,-2.61
2023-01-23T09:52:44.626Z,-2.61
2023-01-23T09:53:44.639Z,-2.72
2023-01-23T09:54:44.699Z,-3.06
2023-01-23T09:55:44.617Z,-2.89
2023-01-23T09:56:44.628Z,-2.61
2023-01-23T09:57:44.636Z,-2.17
2023-01-23T09:58:44.635Z,-2.17
2023-01-23T09:59:58.594Z,-2.28
2023-01-23T10:00:44.637Z,-2.61
2023-01-23T10:01:44.631Z,-2.61
2023-01-23T10:02:44.700Z,-2.89
2023-01-23T10:03:44.750Z,-3.28
2023-01-23T10:04:44.627Z,-2.72
2023-01-23T10:05:44.636Z,-2.44
2023-01-23T10:06:44.637Z,-3.17
2023-01-23T10:07:44.644Z,-3.72
2023-01-23T10:08:44.648Z,-3.72
2023-01-23T10:09:44.649Z,-3.89
2023-01-23T10:10:44.661Z,-3.89
2023-01-23T10:11:44.652Z,-3.89
2023-01-23T10:12:44.653Z,-3.44
2023-01-23T10:13:44.652Z,-3.61
2023-01-23T10:14:44.679Z,-3.44
2023-01-23T10:15:44.657Z,-3.61
2023-01-23T10:16:50.273Z,-3.28
2023-01-23T10:17:44.654Z,-3.17
2023-01-23T10:18:44.663Z,-3.17
2023-01-23T10:19:44.763Z,-2.89
2023-01-23T10:20:44.654Z,-1.83
2023-01-23T10:21:44.660Z,-1.56
2023-01-23T10:22:44.683Z,-1.67
2023-01-23T10:23:44.667Z,-1.44
2023-01-23T10:24:45.638Z,-1.83
2023-01-23T10:25:44.698Z,-0.67
2023-01-23T10:26:44.668Z,-0.67
2023-01-23T10:27:44.660Z,0
2023-01-23T10:28:44.667Z,-0.39
2023-01-23T10:29:44.670Z,-0.83
2023-01-23T10:30:44.806Z,-0.83
2023-01-23T10:31:44.763Z,-0.83
2023-01-23T10:32:44.704Z,-1.28
2023-01-23T10:33:44.679Z,-0.56
2023-01-23T10:34:44.670Z,-1
2023-01-23T10:35:44.788Z,-1.11
2023-01-23T10:36:53.836Z,-1.56
2023-01-23T10:37:44.679Z,-1.83
2023-01-23T10:38:44.680Z,-1.83
2023-01-23T10:39:44.682Z,-1.44
2023-01-23T10:40:44.682Z,-1.11
2023-01-23T10:41:46.337Z,-1.67
2023-01-23T10:42:44.679Z,-2.17
2023-01-23T10:43:44.693Z,-2.61
2023-01-23T10:44:44.687Z,-2.44
2023-01-23T10:45:44.710Z,-2.61
2023-01-23T10:46:44.686Z,-2.61
2023-01-23T10:47:46.290Z,-3.28
2023-01-23T10:48:44.704Z,-2.72
2023-01-23T10:49:44.701Z,-2.44
2023-01-23T10:50:44.696Z,-2.17
2023-01-23T10:51:44.821Z,-2
2023-01-23T10:52:44.707Z,-2.17
2023-01-23T10:53:44.696Z,-2
2023-01-23T10:54:44.707Z,-1.28
2023-01-23T10:55:44.700Z,-1
2023-01-23T10:56:44.711Z,-1
2023-01-23T10:57:44.721Z,-0.83
2023-01-23T10:58:44.705Z,-1.67
2023-01-23T10:59:44.719Z,-1.67
2023-01-23T11:00:44.696Z,-1.56
2023-01-23T11:01:53.150Z,-1
2023-01-23T11:02:44.761Z,-0.67
2023-01-23T11:03:44.710Z,-0.67
2023-01-23T11:04:44.707Z,0
2023-01-23T11:05:52.381Z,0
2023-01-23T11:06:44.717Z,0.89
2023-01-23T11:07:44.838Z,0.89
2023-01-23T11:08:44.718Z,1.06
2023-01-23T11:09:44.732Z,1.17
2023-01-23T11:10:44.714Z,0.72
2023-01-23T11:11:44.722Z,0.44
2023-01-23T11:12:44.714Z,0.17
2023-01-23T11:13:44.752Z,0.44
2023-01-23T11:14:44.730Z,0.44
2023-01-23T11:15:44.812Z,1.33
2023-01-23T11:16:44.717Z,1.17
2023-01-23T11:17:44.737Z,0.89
2023-01-23T11:18:44.718Z,-0.28
2023-01-23T11:19:44.747Z,0.17
2023-01-23T11:20:44.779Z,0.44
2023-01-23T11:21:44.723Z,0.61
2023-01-23T11:22:44.748Z,0.44
2023-01-23T11:23:44.854Z,0.17
2023-01-23T11:24:44.735Z,0.28
2023-01-23T11:25:44.729Z,0.17
2023-01-23T11:26:44.745Z,0.89
2023-01-23T11:27:44.743Z,1.33
2023-01-23T11:28:44.755Z,1.72
2023-01-23T11:29:44.739Z,2
2023-01-23T11:30:44.898Z,2.61
2023-01-23T11:31:44.837Z,0.17
2023-01-23T11:32:44.742Z,-0.67
2023-01-23T11:33:44.732Z,-1
2023-01-23T11:34:44.739Z,-0.67
2023-01-23T11:35:44.742Z,-0.67
2023-01-23T11:36:44.739Z,-0.67
2023-01-23T11:37:44.749Z,-0.17
2023-01-23T11:38:51.966Z,-0.56
2023-01-23T11:39:44.875Z,-0.28
2023-01-23T11:40:44.749Z,-0.67
2023-01-23T11:41:44.742Z,-0.83
2023-01-23T11:42:44.753Z,-0.28
2023-01-23T11:43:44.750Z,-0.56
2023-01-23T11:44:46.723Z,-0.83
2023-01-23T11:45:44.764Z,-1.56
2023-01-23T11:46:44.755Z,-1.44
2023-01-23T11:47:44.762Z,-1.56
2023-01-23T11:48:44.757Z,-1.44
2023-01-23T11:49:44.755Z,-0.83
2023-01-23T11:50:54.743Z,-0.83
2023-01-23T11:51:44.759Z,-1.28
2023-01-23T11:52:44.754Z,-1.28
2023-01-23T11:53:44.820Z,-1.56
2023-01-23T11:54:44.776Z,-1.28
2023-01-23T11:55:44.886Z,-0.83
2023-01-23T11:56:44.766Z,-1.11
2023-01-23T11:57:44.765Z,-1.56
2023-01-23T11:58:49.652Z,-1.83
2023-01-23T11:59:44.764Z,-2
2023-01-23T12:00:44.761Z,-1.83
2023-01-23T12:01:49.220Z,-2.17
2023-01-23T12:02:44.802Z,-1.67
2023-01-23T12:03:44.887Z,-2
2023-01-23T12:04:44.770Z,-1.44
2023-01-23T12:05:44.779Z,-1
2023-01-23T12:06:44.774Z,-1.28
2023-01-23T12:07:44.775Z,-1.44
2023-01-23T12:08:44.779Z,-1.28
2023-01-23T12:09:44.773Z,-1.83
2023-01-23T12:10:44.775Z,-1
2023-01-23T12:11:45.748Z,-0.56
2023-01-23T12:12:44.785Z,-0.39
2023-01-23T12:13:44.777Z,-0.56
2023-01-23T12:14:44.826Z,-0.83
2023-01-23T12:15:44.851Z,-1.11
2023-01-23T12:16:44.783Z,-0.83
2023-01-23T12:17:44.785Z,-0.67
2023-01-23T12:18:44.809Z,-0.28
2023-01-23T12:19:44.795Z,0.17
2023-01-23T12:20:45.702Z,0.17
2023-01-23T12:21:44.783Z,0.44
2023-01-23T12:22:44.789Z,0.89
2023-01-23T12:23:44.802Z,1.06
2023-01-23T12:24:44.794Z,1.61
2023-01-23T12:25:44.789Z,1.61
2023-01-23T12:26:44.800Z,1.61
2023-01-23T12:27:44.899Z,1.17
2023-01-23T12:28:44.804Z,0.89
2023-01-23T12:29:44.792Z,0.44
2023-01-23T12:30:44.800Z,0.61
2023-01-23T12:31:44.935Z,1.17
2023-01-23T12:32:44.798Z,1.5
2023-01-23T12:33:44.805Z,1.17
2023-01-23T12:34:44.794Z,0.89
2023-01-23T12:35:44.799Z,-0.28
2023-01-23T12:37:05.626Z,-0.28
2023-01-23T12:37:44.801Z,-0.17
2023-01-23T12:38:44.804Z,-0.83
2023-01-23T12:39:44.830Z,-0.56
2023-01-23T12:40:44.803Z,-0.83
2023-01-23T12:41:44.810Z,-1.44
2023-01-23T12:42:44.799Z,-0.83
2023-01-23T12:43:44.930Z,-0.83
2023-01-23T12:44:44.811Z,-0.67
2023-01-23T12:45:44.809Z,-1
2023-01-23T12:46:44.832Z,-0.83
2023-01-23T12:47:44.822Z,-0.39
2023-01-23T12:48:44.834Z,-0.83
2023-01-23T12:49:44.807Z,-1.28
2023-01-23T12:50:44.863Z,-1
2023-01-23T12:51:44.804Z,-0.83
2023-01-23T12:52:44.838Z,-0.83
2023-01-23T12:53:44.809Z,-0.83
2023-01-23T12:54:44.814Z,-0.56
2023-01-23T12:55:44.824Z,-0.83
2023-01-23T12:56:44.823Z,-1